LIBD METAR and TAF | Updated Today

LIBD METAR

Bari Karol Wojtyła Airport

Observation time: 15 min. ago

LIBD 061920Z 01006KT 310V050 9999 SCT045 05/M07 Q1028

Need help? Read our tutorial on how to read METARs or read the parsed version below.

Bari Karol Wojtyła Airport (LIBD) METAR

  • Weather conditions on Mon, 06 Feb 2023 19:20:00 +0000 (15 min. ago):
  • Present conditions: Dry
  • Clouds: Scattered at 1372 meters
  • Visibility: Greater than 10 km
  • Wind: 10 degrees at 6 knots
  • Temperature: 5 celsius
  • Dew point: -7 celsius
  • Pressure: 1028 millibars
  • Remarks: None


Useful to know...

LIBD TAF

Bari Karol Wojtyła Airport

TAF LIBD 061700Z 0618/0718 02008KT 9999 SCT040 BECMG 0620/0622 VRB05KT TEMPO 0620/0709 4000 -SN BKN010
Observation time: 2:35 hr. ago
Need help? Read our tutorial on how to read TAFs or read the parsed version below.

Parsed version of TAF for Bari Karol Wojtyła Airport (LIBD)

  • From 06 February at 18:00 UTC, to day 07 of the month at 18:00 UTC
  • Clouds: Scattered at 1219 meters
  • Visibility: Greater than 10 km
  • Wind: 20 degrees at 8
  • Expected to arise soon, from 06 February at 20:00 UTC, to day 06 of the month at 22:00 UTC
  • Wind: Variable at 5
  • Expected to arise temporarily, from 06 February at 20:00 UTC, to day 07 of the month at 09:00 UTC
  • Clouds: Broken sky at 305 meters
  • Visibility: 4000 meters
  • Other: Light snow

Airports near LIBD